sensor_id;sensor_type;location;lat;lon;timestamp;P1;durP1;ratioP1;P2;durP2;ratioP2
64938;SDS011;51453;47.738;7.420;2023-09-08T00:02:12;6.18;;;5.57;;
64938;SDS011;51453;47.738;7.420;2023-09-08T00:04:37;7.07;;;5.20;;
64938;SDS011;51453;47.738;7.420;2023-09-08T00:07:03;9.20;;;5.47;;
64938;SDS011;51453;47.738;7.420;2023-09-08T00:09:29;8.52;;;5.78;;
64938;SDS011;51453;47.738;7.420;2023-09-08T00:11:55;6.22;;;5.63;;
64938;SDS011;51453;47.738;7.420;2023-09-08T00:14:21;6.32;;;5.72;;
64938;SDS011;51453;47.738;7.420;2023-09-08T00:16:46;5.88;;;5.28;;
64938;SDS011;51453;47.738;7.420;2023-09-08T00:19:13;7.38;;;6.15;;
64938;SDS011;51453;47.738;7.420;2023-09-08T00:21:39;8.35;;;6.35;;
64938;SDS011;51453;47.738;7.420;2023-09-08T00:24:05;6.50;;;5.78;;
64938;SDS011;51453;47.738;7.420;2023-09-08T00:26:30;7.45;;;5.88;;
64938;SDS011;51453;47.738;7.420;2023-09-08T00:28:57;8.00;;;5.97;;
64938;SDS011;51453;47.738;7.420;2023-09-08T00:31:22;9.00;;;6.22;;
64938;SDS011;51453;47.738;7.420;2023-09-08T00:33:48;9.80;;;6.10;;
64938;SDS011;51453;47.738;7.420;2023-09-08T00:36:13;8.60;;;6.72;;
64938;SDS011;51453;47.738;7.420;2023-09-08T00:38:40;7.03;;;5.95;;
64938;SDS011;51453;47.738;7.420;2023-09-08T00:41:06;6.80;;;5.78;;
64938;SDS011;51453;47.738;7.420;2023-09-08T00:43:32;10.63;;;6.63;;
64938;SDS011;51453;47.738;7.420;2023-09-08T00:45:57;10.45;;;6.20;;
64938;SDS011;51453;47.738;7.420;2023-09-08T00:48:24;6.63;;;5.85;;
64938;SDS011;51453;47.738;7.420;2023-09-08T00:50:50;6.95;;;5.63;;
64938;SDS011;51453;47.738;7.420;2023-09-08T00:53:16;6.57;;;5.95;;
64938;SDS011;51453;47.738;7.420;2023-09-08T00:55:42;7.05;;;5.95;;
64938;SDS011;51453;47.738;7.420;2023-09-08T00:58:08;8.32;;;5.72;;
64938;SDS011;51453;47.738;7.420;2023-09-08T01:00:36;6.30;;;5.70;;
64938;SDS011;51453;47.738;7.420;2023-09-08T01:03:01;7.32;;;5.65;;
64938;SDS011;51453;47.738;7.420;2023-09-08T01:05:27;7.47;;;5.55;;
64938;SDS011;51453;47.738;7.420;2023-09-08T01:07:53;6.45;;;5.50;;
64938;SDS011;51453;47.738;7.420;2023-09-08T01:10:20;8.05;;;5.90;;
64938;SDS011;51453;47.738;7.420;2023-09-08T01:12:46;6.65;;;5.82;;
64938;SDS011;51453;47.738;7.420;2023-09-08T01:15:12;6.88;;;5.80;;
64938;SDS011;51453;47.738;7.420;2023-09-08T01:17:38;7.50;;;6.25;;
64938;SDS011;51453;47.738;7.420;2023-09-08T01:20:05;7.32;;;5.68;;
64938;SDS011;51453;47.738;7.420;2023-09-08T01:25:18;6.57;;;5.93;;
64938;SDS011;51453;47.738;7.420;2023-09-08T01:27:53;6.22;;;5.63;;
64938;SDS011;51453;47.738;7.420;2023-09-08T01:32:46;8.80;;;5.80;;
64938;SDS011;51453;47.738;7.420;2023-09-08T01:35:12;6.57;;;5.82;;
64938;SDS011;51453;47.738;7.420;2023-09-08T01:37:40;8.00;;;6.15;;
64938;SDS011;51453;47.738;7.420;2023-09-08T01:40:07;6.47;;;5.88;;
64938;SDS011;51453;47.738;7.420;2023-09-08T01:42:34;11.02;;;6.00;;
64938;SDS011;51453;47.738;7.420;2023-09-08T01:44:59;7.63;;;6.30;;
64938;SDS011;51453;47.738;7.420;2023-09-08T01:47:25;7.15;;;6.13;;
64938;SDS011;51453;47.738;7.420;2023-09-08T01:49:52;8.70;;;6.70;;
64938;SDS011;51453;47.738;7.420;2023-09-08T01:52:18;7.53;;;5.95;;
64938;SDS011;51453;47.738;7.420;2023-09-08T01:54:43;6.63;;;5.97;;
64938;SDS011;51453;47.738;7.420;2023-09-08T01:57:09;10.20;;;6.28;;
64938;SDS011;51453;47.738;7.420;2023-09-08T01:59:35;7.78;;;5.85;;
64938;SDS011;51453;47.738;7.420;2023-09-08T02:02:02;8.98;;;6.20;;
64938;SDS011;51453;47.738;7.420;2023-09-08T02:04:28;9.75;;;6.50;;
64938;SDS011;51453;47.738;7.420;2023-09-08T02:06:54;8.48;;;6.30;;
64938;SDS011;51453;47.738;7.420;2023-09-08T02:09:20;7.38;;;6.65;;
64938;SDS011;51453;47.738;7.420;2023-09-08T02:11:45;6.60;;;6.00;;
64938;SDS011;51453;47.738;7.420;2023-09-08T02:14:11;7.85;;;6.72;;
64938;SDS011;51453;47.738;7.420;2023-09-08T02:16:36;8.05;;;6.47;;
64938;SDS011;51453;47.738;7.420;2023-09-08T02:19:02;8.23;;;6.43;;
64938;SDS011;51453;47.738;7.420;2023-09-08T02:21:27;7.57;;;6.55;;
64938;SDS011;51453;47.738;7.420;2023-09-08T02:23:53;8.80;;;6.30;;
64938;SDS011;51453;47.738;7.420;2023-09-08T02:26:19;7.07;;;6.18;;
64938;SDS011;51453;47.738;7.420;2023-09-08T02:28:44;8.75;;;6.25;;
64938;SDS011;51453;47.738;7.420;2023-09-08T02:31:10;9.27;;;6.32;;
64938;SDS011;51453;47.738;7.420;2023-09-08T02:33:36;8.18;;;6.85;;
64938;SDS011;51453;47.738;7.420;2023-09-08T02:36:05;7.72;;;6.55;;
64938;SDS011;51453;47.738;7.420;2023-09-08T02:38:32;7.07;;;5.90;;
64938;SDS011;51453;47.738;7.420;2023-09-08T02:40:58;8.18;;;6.93;;
64938;SDS011;51453;47.738;7.420;2023-09-08T02:43:23;7.30;;;6.60;;
64938;SDS011;51453;47.738;7.420;2023-09-08T02:45:49;8.02;;;6.65;;
64938;SDS011;51453;47.738;7.420;2023-09-08T02:48:15;7.20;;;6.43;;
64938;SDS011;51453;47.738;7.420;2023-09-08T02:50:41;8.20;;;6.90;;
64938;SDS011;51453;47.738;7.420;2023-09-08T02:53:08;11.20;;;7.60;;
64938;SDS011;51453;47.738;7.420;2023-09-08T02:55:34;7.60;;;6.90;;
64938;SDS011;51453;47.738;7.420;2023-09-08T02:57:59;8.50;;;6.97;;
64938;SDS011;51453;47.738;7.420;2023-09-08T03:00:25;9.02;;;6.88;;
64938;SDS011;51453;47.738;7.420;2023-09-08T03:02:50;7.50;;;6.80;;
64938;SDS011;51453;47.738;7.420;2023-09-08T03:05:16;8.57;;;7.07;;
64938;SDS011;51453;47.738;7.420;2023-09-08T03:07:41;10.55;;;6.95;;
64938;SDS011;51453;47.738;7.420;2023-09-08T03:10:07;7.40;;;6.57;;
64938;SDS011;51453;47.738;7.420;2023-09-08T03:12:34;9.25;;;7.22;;
64938;SDS011;51453;47.738;7.420;2023-09-08T03:15:00;8.38;;;6.93;;
64938;SDS011;51453;47.738;7.420;2023-09-08T03:17:27;9.02;;;6.82;;
64938;SDS011;51453;47.738;7.420;2023-09-08T03:19:52;7.75;;;6.88;;
64938;SDS011;51453;47.738;7.420;2023-09-08T03:22:18;8.18;;;7.10;;
64938;SDS011;51453;47.738;7.420;2023-09-08T03:24:44;10.50;;;7.07;;
64938;SDS011;51453;47.738;7.420;2023-09-08T03:27:09;7.47;;;6.70;;
64938;SDS011;51453;47.738;7.420;2023-09-08T03:29:35;8.10;;;6.57;;
64938;SDS011;51453;47.738;7.420;2023-09-08T03:32:00;13.05;;;7.07;;
64938;SDS011;51453;47.738;7.420;2023-09-08T03:34:26;10.68;;;7.13;;
64938;SDS011;51453;47.738;7.420;2023-09-08T03:36:53;8.55;;;6.95;;
64938;SDS011;51453;47.738;7.420;2023-09-08T03:39:18;7.45;;;6.03;;
64938;SDS011;51453;47.738;7.420;2023-09-08T03:41:44;11.98;;;6.88;;
64938;SDS011;51453;47.738;7.420;2023-09-08T03:44:10;9.80;;;7.00;;
64938;SDS011;51453;47.738;7.420;2023-09-08T03:46:36;8.98;;;7.32;;
64938;SDS011;51453;47.738;7.420;2023-09-08T03:49:02;9.10;;;7.25;;
64938;SDS011;51453;47.738;7.420;2023-09-08T03:51:28;9.48;;;7.15;;
64938;SDS011;51453;47.738;7.420;2023-09-08T03:53:54;9.00;;;6.90;;
64938;SDS011;51453;47.738;7.420;2023-09-08T03:56:19;8.75;;;7.03;;
64938;SDS011;51453;47.738;7.420;2023-09-08T03:58:48;8.65;;;6.72;;
64938;SDS011;51453;47.738;7.420;2023-09-08T04:01:14;9.45;;;7.15;;
64938;SDS011;51453;47.738;7.420;2023-09-08T04:03:40;10.27;;;6.78;;
64938;SDS011;51453;47.738;7.420;2023-09-08T04:06:05;8.35;;;6.93;;
64938;SDS011;51453;47.738;7.420;2023-09-08T04:08:31;8.70;;;7.30;;
64938;SDS011;51453;47.738;7.420;2023-09-08T04:10:56;10.60;;;7.10;;
64938;SDS011;51453;47.738;7.420;2023-09-08T04:13:22;8.45;;;6.78;;
64938;SDS011;51453;47.738;7.420;2023-09-08T04:15:47;10.18;;;7.28;;
64938;SDS011;51453;47.738;7.420;2023-09-08T04:18:13;9.68;;;7.75;;
64938;SDS011;51453;47.738;7.420;2023-09-08T04:20:39;10.32;;;7.55;;
64938;SDS011;51453;47.738;7.420;2023-09-08T04:23:04;8.52;;;7.20;;
64938;SDS011;51453;47.738;7.420;2023-09-08T04:25:30;10.85;;;7.20;;
64938;SDS011;51453;47.738;7.420;2023-09-08T04:27:56;8.60;;;6.55;;
64938;SDS011;51453;47.738;7.420;2023-09-08T04:30:21;9.60;;;7.05;;
64938;SDS011;51453;47.738;7.420;2023-09-08T04:32:47;8.00;;;7.20;;
64938;SDS011;51453;47.738;7.420;2023-09-08T04:35:12;7.90;;;7.10;;
64938;SDS011;51453;47.738;7.420;2023-09-08T04:37:38;9.10;;;7.25;;
64938;SDS011;51453;47.738;7.420;2023-09-08T04:40:05;10.68;;;7.22;;
64938;SDS011;51453;47.738;7.420;2023-09-08T04:42:32;9.55;;;7.15;;
64938;SDS011;51453;47.738;7.420;2023-09-08T04:44:57;12.32;;;8.32;;
64938;SDS011;51453;47.738;7.420;2023-09-08T04:47:23;9.02;;;7.40;;
64938;SDS011;51453;47.738;7.420;2023-09-08T04:49:49;10.15;;;7.63;;
64938;SDS011;51453;47.738;7.420;2023-09-08T04:52:14;7.97;;;7.15;;
64938;SDS011;51453;47.738;7.420;2023-09-08T04:54:40;8.00;;;7.20;;
64938;SDS011;51453;47.738;7.420;2023-09-08T04:57:05;8.43;;;7.43;;
64938;SDS011;51453;47.738;7.420;2023-09-08T04:59:31;10.50;;;7.35;;
64938;SDS011;51453;47.738;7.420;2023-09-08T05:01:57;8.05;;;6.95;;
64938;SDS011;51453;47.738;7.420;2023-09-08T05:04:23;9.25;;;7.25;;
64938;SDS011;51453;47.738;7.420;2023-09-08T05:06:49;8.52;;;7.30;;
64938;SDS011;51453;47.738;7.420;2023-09-08T05:09:15;9.32;;;6.88;;
64938;SDS011;51453;47.738;7.420;2023-09-08T05:11:40;8.52;;;7.60;;
64938;SDS011;51453;47.738;7.420;2023-09-08T05:14:06;9.43;;;7.82;;
64938;SDS011;51453;47.738;7.420;2023-09-08T05:16:32;10.45;;;7.75;;
64938;SDS011;51453;47.738;7.420;2023-09-08T05:19:24;9.52;;;8.27;;
64938;SDS011;51453;47.738;7.420;2023-09-08T05:21:50;8.35;;;7.45;;
64938;SDS011;51453;47.738;7.420;2023-09-08T05:24:17;11.25;;;8.30;;
64938;SDS011;51453;47.738;7.420;2023-09-08T05:26:42;8.52;;;7.50;;
64938;SDS011;51453;47.738;7.420;2023-09-08T05:29:08;11.15;;;7.38;;
64938;SDS011;51453;47.738;7.420;2023-09-08T05:31:33;9.23;;;7.35;;
64938;SDS011;51453;47.738;7.420;2023-09-08T05:33:59;8.52;;;7.72;;
64938;SDS011;51453;47.738;7.420;2023-09-08T05:36:25;10.02;;;8.30;;
64938;SDS011;51453;47.738;7.420;2023-09-08T05:38:50;11.98;;;8.23;;
64938;SDS011;51453;47.738;7.420;2023-09-08T05:41:16;13.10;;;8.18;;
64938;SDS011;51453;47.738;7.420;2023-09-08T05:43:41;12.02;;;8.73;;
64938;SDS011;51453;47.738;7.420;2023-09-08T05:46:07;11.13;;;7.85;;
64938;SDS011;51453;47.738;7.420;2023-09-08T05:48:33;10.93;;;8.07;;
64938;SDS011;51453;47.738;7.420;2023-09-08T05:50:58;8.98;;;7.72;;
64938;SDS011;51453;47.738;7.420;2023-09-08T05:53:24;9.98;;;8.18;;
64938;SDS011;51453;47.738;7.420;2023-09-08T05:55:50;11.15;;;8.35;;
64938;SDS011;51453;47.738;7.420;2023-09-08T05:58:16;9.38;;;7.93;;
64938;SDS011;51453;47.738;7.420;2023-09-08T06:00:41;9.82;;;7.97;;
64938;SDS011;51453;47.738;7.420;2023-09-08T06:03:07;10.13;;;8.18;;
64938;SDS011;51453;47.738;7.420;2023-09-08T06:05:32;14.27;;;8.23;;
64938;SDS011;51453;47.738;7.420;2023-09-08T06:07:58;9.65;;;8.40;;
64938;SDS011;51453;47.738;7.420;2023-09-08T06:10:24;9.40;;;8.50;;
64938;SDS011;51453;47.738;7.420;2023-09-08T06:12:49;9.27;;;7.97;;
64938;SDS011;51453;47.738;7.420;2023-09-08T06:15:15;9.05;;;8.15;;
64938;SDS011;51453;47.738;7.420;2023-09-08T06:17:42;9.20;;;8.05;;
64938;SDS011;51453;47.738;7.420;2023-09-08T06:20:07;10.20;;;7.97;;
64938;SDS011;51453;47.738;7.420;2023-09-08T06:22:33;9.05;;;7.50;;
64938;SDS011;51453;47.738;7.420;2023-09-08T06:24:59;9.38;;;7.78;;
64938;SDS011;51453;47.738;7.420;2023-09-08T06:27:25;8.60;;;7.38;;
64938;SDS011;51453;47.738;7.420;2023-09-08T06:29:51;8.65;;;7.18;;
64938;SDS011;51453;47.738;7.420;2023-09-08T06:32:16;8.38;;;7.65;;
64938;SDS011;51453;47.738;7.420;2023-09-08T06:34:42;11.93;;;7.55;;
64938;SDS011;51453;47.738;7.420;2023-09-08T06:37:08;8.90;;;7.60;;
64938;SDS011;51453;47.738;7.420;2023-09-08T06:39:33;9.70;;;7.80;;
64938;SDS011;51453;47.738;7.420;2023-09-08T06:41:59;11.05;;;7.70;;
64938;SDS011;51453;47.738;7.420;2023-09-08T06:44:25;7.97;;;7.20;;
64938;SDS011;51453;47.738;7.420;2023-09-08T06:46:50;8.55;;;7.65;;
64938;SDS011;51453;47.738;7.420;2023-09-08T06:49:16;8.90;;;7.47;;
64938;SDS011;51453;47.738;7.420;2023-09-08T06:51:42;9.45;;;7.45;;
64938;SDS011;51453;47.738;7.420;2023-09-08T06:54:07;10.57;;;7.13;;
64938;SDS011;51453;47.738;7.420;2023-09-08T06:56:33;9.45;;;7.15;;
64938;SDS011;51453;47.738;7.420;2023-09-08T06:59:00;8.52;;;7.68;;
64938;SDS011;51453;47.738;7.420;2023-09-08T07:01:26;10.48;;;7.88;;
64938;SDS011;51453;47.738;7.420;2023-09-08T07:03:51;9.77;;;7.80;;
64938;SDS011;51453;47.738;7.420;2023-09-08T07:06:17;11.18;;;7.63;;
64938;SDS011;51453;47.738;7.420;2023-09-08T07:08:43;11.57;;;7.93;;
64938;SDS011;51453;47.738;7.420;2023-09-08T07:11:08;10.23;;;7.88;;
64938;SDS011;51453;47.738;7.420;2023-09-08T07:13:34;9.10;;;7.25;;
64938;SDS011;51453;47.738;7.420;2023-09-08T07:16:00;8.18;;;7.15;;
64938;SDS011;51453;47.738;7.420;2023-09-08T07:18:25;9.82;;;6.93;;
64938;SDS011;51453;47.738;7.420;2023-09-08T07:20:51;8.57;;;7.68;;
64938;SDS011;51453;47.738;7.420;2023-09-08T07:23:17;9.77;;;7.60;;
64938;SDS011;51453;47.738;7.420;2023-09-08T07:25:46;9.00;;;7.38;;
64938;SDS011;51453;47.738;7.420;2023-09-08T07:28:13;11.85;;;7.57;;
64938;SDS011;51453;47.738;7.420;2023-09-08T07:30:38;10.48;;;7.78;;
64938;SDS011;51453;47.738;7.420;2023-09-08T07:33:04;8.45;;;7.57;;
64938;SDS011;51453;47.738;7.420;2023-09-08T07:35:30;9.93;;;7.20;;
64938;SDS011;51453;47.738;7.420;2023-09-08T07:37:56;9.65;;;7.68;;
64938;SDS011;51453;47.738;7.420;2023-09-08T07:40:22;9.48;;;7.13;;
64938;SDS011;51453;47.738;7.420;2023-09-08T07:42:48;8.52;;;7.45;;
64938;SDS011;51453;47.738;7.420;2023-09-08T07:45:13;9.40;;;7.20;;
64938;SDS011;51453;47.738;7.420;2023-09-08T07:47:39;8.85;;;7.03;;
64938;SDS011;51453;47.738;7.420;2023-09-08T07:50:18;8.90;;;7.40;;
64938;SDS011;51453;47.738;7.420;2023-09-08T07:52:48;9.88;;;6.72;;
64938;SDS011;51453;47.738;7.420;2023-09-08T07:55:15;10.27;;;7.22;;
64938;SDS011;51453;47.738;7.420;2023-09-08T07:57:42;10.88;;;6.50;;
64938;SDS011;51453;47.738;7.420;2023-09-08T08:00:08;8.02;;;6.88;;
64938;SDS011;51453;47.738;7.420;2023-09-08T08:02:46;12.38;;;6.65;;
64938;SDS011;51453;47.738;7.420;2023-09-08T08:05:13;12.82;;;7.32;;
64938;SDS011;51453;47.738;7.420;2023-09-08T08:07:39;14.02;;;7.25;;
64938;SDS011;51453;47.738;7.420;2023-09-08T08:10:06;17.38;;;7.47;;
64938;SDS011;51453;47.738;7.420;2023-09-08T08:12:32;17.85;;;7.53;;
64938;SDS011;51453;47.738;7.420;2023-09-08T08:14:58;13.35;;;6.82;;
64938;SDS011;51453;47.738;7.420;2023-09-08T08:17:26;9.40;;;6.55;;
64938;SDS011;51453;47.738;7.420;2023-09-08T08:19:53;8.63;;;6.82;;
64938;SDS011;51453;47.738;7.420;2023-09-08T08:22:19;12.20;;;6.57;;
64938;SDS011;51453;47.738;7.420;2023-09-08T08:24:45;11.13;;;6.50;;
64938;SDS011;51453;47.738;7.420;2023-09-08T08:27:11;11.25;;;6.32;;
64938;SDS011;51453;47.738;7.420;2023-09-08T08:29:36;11.57;;;6.60;;
64938;SDS011;51453;47.738;7.420;2023-09-08T08:32:02;7.70;;;6.72;;
64938;SDS011;51453;47.738;7.420;2023-09-08T08:34:28;12.80;;;6.65;;
64938;SDS011;51453;47.738;7.420;2023-09-08T08:36:53;12.48;;;6.35;;
64938;SDS011;51453;47.738;7.420;2023-09-08T08:39:19;7.07;;;6.38;;
64938;SDS011;51453;47.738;7.420;2023-09-08T08:41:45;8.32;;;6.57;;
64938;SDS011;51453;47.738;7.420;2023-09-08T08:44:10;10.85;;;6.50;;
64938;SDS011;51453;47.738;7.420;2023-09-08T08:46:37;10.35;;;6.90;;
64938;SDS011;51453;47.738;7.420;2023-09-08T08:49:04;7.32;;;6.57;;
64938;SDS011;51453;47.738;7.420;2023-09-08T08:51:30;12.35;;;6.53;;
64938;SDS011;51453;47.738;7.420;2023-09-08T08:53:56;10.70;;;6.40;;
64938;SDS011;51453;47.738;7.420;2023-09-08T08:56:22;10.13;;;6.43;;
64938;SDS011;51453;47.738;7.420;2023-09-08T08:58:48;7.32;;;6.30;;
64938;SDS011;51453;47.738;7.420;2023-09-08T09:01:18;6.88;;;6.18;;
64938;SDS011;51453;47.738;7.420;2023-09-08T09:03:49;7.55;;;5.97;;
64938;SDS011;51453;47.738;7.420;2023-09-08T09:06:16;6.72;;;6.03;;
64938;SDS011;51453;47.738;7.420;2023-09-08T09:08:43;8.68;;;6.05;;
64938;SDS011;51453;47.738;7.420;2023-09-08T09:11:10;9.70;;;6.63;;
64938;SDS011;51453;47.738;7.420;2023-09-08T09:13:36;6.07;;;5.47;;
64938;SDS011;51453;47.738;7.420;2023-09-08T09:16:02;7.00;;;5.90;;
64938;SDS011;51453;47.738;7.420;2023-09-08T09:18:31;9.02;;;5.88;;
64938;SDS011;51453;47.738;7.420;2023-09-08T09:21:01;7.40;;;5.95;;
64938;SDS011;51453;47.738;7.420;2023-09-08T09:23:33;8.25;;;6.30;;
64938;SDS011;51453;47.738;7.420;2023-09-08T09:26:01;8.55;;;5.88;;
64938;SDS011;51453;47.738;7.420;2023-09-08T09:28:30;12.95;;;6.10;;
64938;SDS011;51453;47.738;7.420;2023-09-08T09:30:56;8.30;;;6.28;;
64938;SDS011;51453;47.738;7.420;2023-09-08T09:33:22;8.43;;;5.90;;
64938;SDS011;51453;47.738;7.420;2023-09-08T09:35:50;10.68;;;6.28;;
64938;SDS011;51453;47.738;7.420;2023-09-08T09:38:21;10.35;;;5.95;;
64938;SDS011;51453;47.738;7.420;2023-09-08T09:40:47;12.57;;;6.45;;
64938;SDS011;51453;47.738;7.420;2023-09-08T09:43:14;11.70;;;6.60;;
64938;SDS011;51453;47.738;7.420;2023-09-08T09:45:42;10.05;;;6.43;;
64938;SDS011;51453;47.738;7.420;2023-09-08T09:48:09;12.38;;;6.60;;
64938;SDS011;51453;47.738;7.420;2023-09-08T09:50:36;11.57;;;6.60;;
64938;SDS011;51453;47.738;7.420;2023-09-08T09:55:36;9.75;;;6.57;;
64938;SDS011;51453;47.738;7.420;2023-09-08T09:58:03;9.30;;;6.15;;
64938;SDS011;51453;47.738;7.420;2023-09-08T10:00:30;10.73;;;6.40;;
64938;SDS011;51453;47.738;7.420;2023-09-08T10:02:59;9.98;;;5.60;;
64938;SDS011;51453;47.738;7.420;2023-09-08T10:05:26;9.20;;;5.40;;
64938;SDS011;51453;47.738;7.420;2023-09-08T10:07:52;13.77;;;5.95;;
64938;SDS011;51453;47.738;7.420;2023-09-08T10:10:19;8.40;;;5.95;;
64938;SDS011;51453;47.738;7.420;2023-09-08T10:12:46;8.13;;;5.85;;
64938;SDS011;51453;47.738;7.420;2023-09-08T10:15:18;6.85;;;5.70;;
64938;SDS011;51453;47.738;7.420;2023-09-08T10:17:46;9.25;;;5.38;;
64938;SDS011;51453;47.738;7.420;2023-09-08T10:20:17;8.10;;;5.85;;
64938;SDS011;51453;47.738;7.420;2023-09-08T10:22:46;7.38;;;5.68;;
64938;SDS011;51453;47.738;7.420;2023-09-08T10:25:17;8.75;;;5.57;;
64938;SDS011;51453;47.738;7.420;2023-09-08T10:27:46;5.82;;;5.10;;
64938;SDS011;51453;47.738;7.420;2023-09-08T10:30:12;8.02;;;5.20;;
64938;SDS011;51453;47.738;7.420;2023-09-08T10:32:39;7.03;;;5.30;;
64938;SDS011;51453;47.738;7.420;2023-09-08T10:35:06;6.85;;;5.70;;
64938;SDS011;51453;47.738;7.420;2023-09-08T10:37:33;7.28;;;5.82;;
64938;SDS011;51453;47.738;7.420;2023-09-08T10:43:07;7.78;;;5.30;;
64938;SDS011;51453;47.738;7.420;2023-09-08T10:45:34;11.35;;;4.93;;
64938;SDS011;51453;47.738;7.420;2023-09-08T10:48:00;6.63;;;5.30;;
64938;SDS011;51453;47.738;7.420;2023-09-08T10:50:29;7.82;;;5.05;;
64938;SDS011;51453;47.738;7.420;2023-09-08T10:53:10;6.55;;;5.13;;
64938;SDS011;51453;47.738;7.420;2023-09-08T10:55:40;6.10;;;5.32;;
64938;SDS011;51453;47.738;7.420;2023-09-08T10:58:09;7.53;;;5.25;;
64938;SDS011;51453;47.738;7.420;2023-09-08T11:00:45;7.35;;;4.70;;
64938;SDS011;51453;47.738;7.420;2023-09-08T11:03:13;7.07;;;4.75;;
64938;SDS011;51453;47.738;7.420;2023-09-08T11:05:40;5.15;;;4.43;;
64938;SDS011;51453;47.738;7.420;2023-09-08T11:08:06;5.65;;;4.68;;
64938;SDS011;51453;47.738;7.420;2023-09-08T11:10:32;14.13;;;4.60;;
64938;SDS011;51453;47.738;7.420;2023-09-08T11:12:58;6.95;;;4.60;;
64938;SDS011;51453;47.738;7.420;2023-09-08T11:15:25;7.32;;;4.35;;
64938;SDS011;51453;47.738;7.420;2023-09-08T11:17:50;6.68;;;4.30;;
64938;SDS011;51453;47.738;7.420;2023-09-08T11:20:25;7.80;;;4.40;;
64938;SDS011;51453;47.738;7.420;2023-09-08T11:22:51;6.72;;;4.25;;
64938;SDS011;51453;47.738;7.420;2023-09-08T11:25:18;4.78;;;4.22;;
64938;SDS011;51453;47.738;7.420;2023-09-08T11:27:45;5.40;;;4.65;;
64938;SDS011;51453;47.738;7.420;2023-09-08T11:30:15;6.40;;;4.68;;
64938;SDS011;51453;47.738;7.420;2023-09-08T11:32:40;8.27;;;4.80;;
64938;SDS011;51453;47.738;7.420;2023-09-08T11:35:07;4.57;;;4.18;;
64938;SDS011;51453;47.738;7.420;2023-09-08T11:37:38;7.28;;;4.30;;
64938;SDS011;51453;47.738;7.420;2023-09-08T11:40:08;6.18;;;4.18;;
64938;SDS011;51453;47.738;7.420;2023-09-08T11:42:37;10.20;;;4.60;;
64938;SDS011;51453;47.738;7.420;2023-09-08T11:45:10;9.50;;;4.32;;
64938;SDS011;51453;47.738;7.420;2023-09-08T11:47:40;7.97;;;4.32;;
64938;SDS011;51453;47.738;7.420;2023-09-08T11:50:07;5.97;;;4.50;;
64938;SDS011;51453;47.738;7.420;2023-09-08T11:52:36;8.57;;;4.53;;
64938;SDS011;51453;47.738;7.420;2023-09-08T11:55:02;4.22;;;3.83;;
64938;SDS011;51453;47.738;7.420;2023-09-08T11:57:28;5.82;;;4.32;;
64938;SDS011;51453;47.738;7.420;2023-09-08T11:59:54;4.60;;;4.07;;
64938;SDS011;51453;47.738;7.420;2023-09-08T12:02:20;7.05;;;4.00;;
64938;SDS011;51453;47.738;7.420;2023-09-08T12:04:46;7.50;;;4.20;;
64938;SDS011;51453;47.738;7.420;2023-09-08T12:07:12;4.55;;;3.88;;
64938;SDS011;51453;47.738;7.420;2023-09-08T12:09:40;5.63;;;4.03;;
64938;SDS011;51453;47.738;7.420;2023-09-08T12:12:10;5.43;;;4.00;;
64938;SDS011;51453;47.738;7.420;2023-09-08T12:14:45;4.30;;;3.90;;
64938;SDS011;51453;47.738;7.420;2023-09-08T12:17:11;6.93;;;4.50;;
64938;SDS011;51453;47.738;7.420;2023-09-08T12:19:40;5.13;;;3.83;;
64938;SDS011;51453;47.738;7.420;2023-09-08T12:22:06;5.82;;;3.83;;
64938;SDS011;51453;47.738;7.420;2023-09-08T12:24:51;4.43;;;3.90;;
64938;SDS011;51453;47.738;7.420;2023-09-08T12:27:22;5.72;;;3.92;;
64938;SDS011;51453;47.738;7.420;2023-09-08T12:29:52;9.20;;;3.90;;
64938;SDS011;51453;47.738;7.420;2023-09-08T12:32:22;6.30;;;3.90;;
64938;SDS011;51453;47.738;7.420;2023-09-08T12:34:48;4.57;;;3.90;;
64938;SDS011;51453;47.738;7.420;2023-09-08T12:37:14;6.18;;;4.15;;
64938;SDS011;51453;47.738;7.420;2023-09-08T12:39:44;5.82;;;3.92;;
64938;SDS011;51453;47.738;7.420;2023-09-08T12:42:09;5.95;;;4.00;;
64938;SDS011;51453;47.738;7.420;2023-09-08T12:44:35;5.57;;;4.10;;
64938;SDS011;51453;47.738;7.420;2023-09-08T12:47:00;6.47;;;3.60;;
64938;SDS011;51453;47.738;7.420;2023-09-08T12:49:26;9.75;;;4.00;;
64938;SDS011;51453;47.738;7.420;2023-09-08T12:51:51;6.22;;;4.05;;
64938;SDS011;51453;47.738;7.420;2023-09-08T12:54:17;8.55;;;4.25;;
64938;SDS011;51453;47.738;7.420;2023-09-08T12:56:42;7.03;;;4.28;;
64938;SDS011;51453;47.738;7.420;2023-09-08T12:59:08;4.30;;;3.70;;
64938;SDS011;51453;47.738;7.420;2023-09-08T13:01:34;6.28;;;3.90;;
64938;SDS011;51453;47.738;7.420;2023-09-08T13:03:59;5.90;;;3.90;;
64938;SDS011;51453;47.738;7.420;2023-09-08T13:06:26;5.80;;;3.72;;
64938;SDS011;51453;47.738;7.420;2023-09-08T13:08:52;5.80;;;3.63;;
64938;SDS011;51453;47.738;7.420;2023-09-08T13:11:17;4.35;;;3.70;;
64938;SDS011;51453;47.738;7.420;2023-09-08T13:13:44;5.20;;;3.60;;
64938;SDS011;51453;47.738;7.420;2023-09-08T13:16:09;7.38;;;3.72;;
64938;SDS011;51453;47.738;7.420;2023-09-08T13:18:35;5.90;;;3.70;;
64938;SDS011;51453;47.738;7.420;2023-09-08T13:21:03;6.22;;;4.25;;
64938;SDS011;51453;47.738;7.420;2023-09-08T13:23:29;8.07;;;4.03;;
64938;SDS011;51453;47.738;7.420;2023-09-08T13:25:55;3.78;;;3.30;;
64938;SDS011;51453;47.738;7.420;2023-09-08T13:28:20;4.82;;;3.90;;
64938;SDS011;51453;47.738;7.420;2023-09-08T13:30:46;4.20;;;3.70;;
64938;SDS011;51453;47.738;7.420;2023-09-08T13:33:11;5.50;;;3.33;;
64938;SDS011;51453;47.738;7.420;2023-09-08T13:35:37;5.40;;;4.03;;
64938;SDS011;51453;47.738;7.420;2023-09-08T13:38:04;6.22;;;3.50;;
64938;SDS011;51453;47.738;7.420;2023-09-08T13:40:30;4.20;;;3.80;;
64938;SDS011;51453;47.738;7.420;2023-09-08T13:42:55;6.88;;;4.05;;
64938;SDS011;51453;47.738;7.420;2023-09-08T13:45:21;4.80;;;3.40;;
64938;SDS011;51453;47.738;7.420;2023-09-08T13:47:46;6.85;;;3.97;;
64938;SDS011;51453;47.738;7.420;2023-09-08T13:50:12;7.97;;;3.83;;
64938;SDS011;51453;47.738;7.420;2023-09-08T13:52:38;6.75;;;3.55;;
64938;SDS011;51453;47.738;7.420;2023-09-08T13:55:06;5.57;;;3.80;;
64938;SDS011;51453;47.738;7.420;2023-09-08T13:57:32;5.80;;;3.80;;
64938;SDS011;51453;47.738;7.420;2023-09-08T13:59:58;5.82;;;3.72;;
64938;SDS011;51453;47.738;7.420;2023-09-08T14:02:24;8.93;;;4.28;;
64938;SDS011;51453;47.738;7.420;2023-09-08T14:04:49;8.88;;;4.30;;
64938;SDS011;51453;47.738;7.420;2023-09-08T14:07:15;4.72;;;3.60;;
64938;SDS011;51453;47.738;7.420;2023-09-08T14:09:41;5.32;;;3.95;;
64938;SDS011;51453;47.738;7.420;2023-09-08T14:12:06;6.30;;;3.65;;
64938;SDS011;51453;47.738;7.420;2023-09-08T14:14:32;4.60;;;3.28;;
64938;SDS011;51453;47.738;7.420;2023-09-08T14:16:57;4.30;;;3.90;;
64938;SDS011;51453;47.738;7.420;2023-09-08T14:19:23;6.78;;;3.90;;
64938;SDS011;51453;47.738;7.420;2023-09-08T14:21:49;5.18;;;3.60;;
64938;SDS011;51453;47.738;7.420;2023-09-08T14:24:14;4.93;;;3.70;;
64938;SDS011;51453;47.738;7.420;2023-09-08T14:26:40;8.18;;;3.80;;
64938;SDS011;51453;47.738;7.420;2023-09-08T14:29:05;6.15;;;3.60;;
64938;SDS011;51453;47.738;7.420;2023-09-08T14:31:31;5.57;;;3.70;;
64938;SDS011;51453;47.738;7.420;2023-09-08T14:33:57;6.22;;;3.75;;
64938;SDS011;51453;47.738;7.420;2023-09-08T14:36:22;5.15;;;3.90;;
64938;SDS011;51453;47.738;7.420;2023-09-08T14:38:49;4.22;;;3.55;;
64938;SDS011;51453;47.738;7.420;2023-09-08T14:41:14;12.70;;;4.25;;
64938;SDS011;51453;47.738;7.420;2023-09-08T14:43:40;3.78;;;3.45;;
64938;SDS011;51453;47.738;7.420;2023-09-08T14:46:06;7.70;;;4.03;;
64938;SDS011;51453;47.738;7.420;2023-09-08T14:48:31;6.65;;;3.95;;
64938;SDS011;51453;47.738;7.420;2023-09-08T14:50:57;7.55;;;4.25;;
64938;SDS011;51453;47.738;7.420;2023-09-08T14:53:23;6.93;;;4.00;;